sensor_id;sensor_type;location;lat;lon;timestamp;P1;durP1;ratioP1;P2;durP2;ratioP2
51618;SDS011;38518;53.164;5.430;2023-06-22T00:00:52;38.08;;;31.80;;
51618;SDS011;38518;53.164;5.430;2023-06-22T00:03:19;43.50;;;33.95;;
51618;SDS011;38518;53.164;5.430;2023-06-22T00:05:46;36.78;;;32.60;;
51618;SDS011;38518;53.164;5.430;2023-06-22T00:08:13;35.03;;;29.80;;
51618;SDS011;38518;53.164;5.430;2023-06-22T00:10:39;39.42;;;33.22;;
51618;SDS011;38518;53.164;5.430;2023-06-22T00:13:05;32.50;;;29.02;;
51618;SDS011;38518;53.164;5.430;2023-06-22T00:15:32;30.40;;;26.52;;
51618;SDS011;38518;53.164;5.430;2023-06-22T00:17:58;33.30;;;29.15;;
51618;SDS011;38518;53.164;5.430;2023-06-22T00:20:24;29.50;;;26.30;;
51618;SDS011;38518;53.164;5.430;2023-06-22T00:22:54;36.60;;;31.10;;
51618;SDS011;38518;53.164;5.430;2023-06-22T00:25:20;38.75;;;32.00;;
51618;SDS011;38518;53.164;5.430;2023-06-22T00:27:46;30.55;;;25.92;;
51618;SDS011;38518;53.164;5.430;2023-06-22T00:30:12;33.00;;;27.92;;
51618;SDS011;38518;53.164;5.430;2023-06-22T00:32:38;35.22;;;30.83;;
51618;SDS011;38518;53.164;5.430;2023-06-22T00:35:04;44.83;;;33.92;;
51618;SDS011;38518;53.164;5.430;2023-06-22T00:37:30;38.25;;;32.47;;
51618;SDS011;38518;53.164;5.430;2023-06-22T00:39:56;43.25;;;33.88;;
51618;SDS011;38518;53.164;5.430;2023-06-22T00:42:22;47.30;;;37.50;;
51618;SDS011;38518;53.164;5.430;2023-06-22T00:44:48;41.42;;;34.75;;
51618;SDS011;38518;53.164;5.430;2023-06-22T00:47:14;38.63;;;32.63;;
51618;SDS011;38518;53.164;5.430;2023-06-22T00:49:42;35.15;;;31.05;;
51618;SDS011;38518;53.164;5.430;2023-06-22T00:52:08;36.72;;;31.38;;
51618;SDS011;38518;53.164;5.430;2023-06-22T00:54:38;47.35;;;36.90;;
51618;SDS011;38518;53.164;5.430;2023-06-22T00:57:05;53.88;;;39.20;;
51618;SDS011;38518;53.164;5.430;2023-06-22T00:59:35;41.00;;;33.63;;
51618;SDS011;38518;53.164;5.430;2023-06-22T01:02:01;45.33;;;37.42;;
51618;SDS011;38518;53.164;5.430;2023-06-22T01:04:33;45.00;;;35.90;;
51618;SDS011;38518;53.164;5.430;2023-06-22T01:07:48;49.63;;;39.25;;
51618;SDS011;38518;53.164;5.430;2023-06-22T01:12:43;48.92;;;39.50;;
51618;SDS011;38518;53.164;5.430;2023-06-22T01:15:26;50.30;;;41.63;;
51618;SDS011;38518;53.164;5.430;2023-06-22T01:17:56;70.28;;;46.83;;
51618;SDS011;38518;53.164;5.430;2023-06-22T01:20:23;58.97;;;43.53;;
51618;SDS011;38518;53.164;5.430;2023-06-22T01:23:11;57.60;;;42.67;;
51618;SDS011;38518;53.164;5.430;2023-06-22T01:28:54;63.78;;;44.83;;
51618;SDS011;38518;53.164;5.430;2023-06-22T01:31:24;61.50;;;43.50;;
51618;SDS011;38518;53.164;5.430;2023-06-22T01:33:52;62.72;;;44.10;;
51618;SDS011;38518;53.164;5.430;2023-06-22T01:36:20;73.68;;;46.40;;
51618;SDS011;38518;53.164;5.430;2023-06-22T01:38:48;73.18;;;46.90;;
51618;SDS011;38518;53.164;5.430;2023-06-22T01:41:14;63.38;;;43.00;;
51618;SDS011;38518;53.164;5.430;2023-06-22T01:43:41;61.67;;;43.45;;
51618;SDS011;38518;53.164;5.430;2023-06-22T01:46:08;70.65;;;47.00;;
51618;SDS011;38518;53.164;5.430;2023-06-22T01:48:35;60.85;;;44.03;;
51618;SDS011;38518;53.164;5.430;2023-06-22T01:51:01;57.00;;;42.30;;
51618;SDS011;38518;53.164;5.430;2023-06-22T01:53:28;55.28;;;44.45;;
51618;SDS011;38518;53.164;5.430;2023-06-22T01:55:53;57.95;;;42.58;;
51618;SDS011;38518;53.164;5.430;2023-06-22T01:58:23;60.75;;;46.70;;
51618;SDS011;38518;53.164;5.430;2023-06-22T02:01:00;62.45;;;48.95;;
51618;SDS011;38518;53.164;5.430;2023-06-22T02:03:37;82.07;;;55.40;;
51618;SDS011;38518;53.164;5.430;2023-06-22T02:06:14;81.13;;;54.58;;
51618;SDS011;38518;53.164;5.430;2023-06-22T02:08:53;65.82;;;49.67;;
51618;SDS011;38518;53.164;5.430;2023-06-22T02:11:24;58.25;;;45.72;;
51618;SDS011;38518;53.164;5.430;2023-06-22T02:13:52;72.82;;;50.42;;
51618;SDS011;38518;53.164;5.430;2023-06-22T02:16:18;64.70;;;47.50;;
51618;SDS011;38518;53.164;5.430;2023-06-22T02:18:48;63.05;;;48.15;;
51618;SDS011;38518;53.164;5.430;2023-06-22T02:21:16;76.72;;;50.90;;
51618;SDS011;38518;53.164;5.430;2023-06-22T02:23:42;82.50;;;54.15;;
51618;SDS011;38518;53.164;5.430;2023-06-22T02:26:07;87.00;;;55.97;;
51618;SDS011;38518;53.164;5.430;2023-06-22T02:28:33;90.75;;;56.30;;
51618;SDS011;38518;53.164;5.430;2023-06-22T02:30:59;273.70;;;76.35;;
51618;SDS011;38518;53.164;5.430;2023-06-22T02:33:25;132.38;;;54.35;;
51618;SDS011;38518;53.164;5.430;2023-06-22T02:35:50;108.07;;;56.72;;
51618;SDS011;38518;53.164;5.430;2023-06-22T02:38:16;129.02;;;54.60;;
51618;SDS011;38518;53.164;5.430;2023-06-22T02:40:42;141.63;;;59.53;;
51618;SDS011;38518;53.164;5.430;2023-06-22T02:43:08;122.10;;;48.53;;
51618;SDS011;38518;53.164;5.430;2023-06-22T02:45:33;84.57;;;49.40;;
51618;SDS011;38518;53.164;5.430;2023-06-22T02:47:59;83.95;;;50.25;;
51618;SDS011;38518;53.164;5.430;2023-06-22T02:50:25;142.25;;;49.20;;
51618;SDS011;38518;53.164;5.430;2023-06-22T02:52:50;106.63;;;52.85;;
51618;SDS011;38518;53.164;5.430;2023-06-22T02:55:16;227.82;;;56.25;;
51618;SDS011;38518;53.164;5.430;2023-06-22T02:57:42;172.25;;;51.17;;
51618;SDS011;38518;53.164;5.430;2023-06-22T03:00:11;85.57;;;52.45;;
51618;SDS011;38518;53.164;5.430;2023-06-22T03:02:42;133.18;;;55.55;;
51618;SDS011;38518;53.164;5.430;2023-06-22T03:05:09;93.38;;;52.53;;
51618;SDS011;38518;53.164;5.430;2023-06-22T03:07:38;163.80;;;59.42;;
51618;SDS011;38518;53.164;5.430;2023-06-22T03:10:05;87.00;;;52.17;;
51618;SDS011;38518;53.164;5.430;2023-06-22T03:12:32;148.93;;;54.72;;
51618;SDS011;38518;53.164;5.430;2023-06-22T03:14:58;101.10;;;56.70;;
51618;SDS011;38518;53.164;5.430;2023-06-22T03:17:23;66.22;;;50.10;;
51618;SDS011;38518;53.164;5.430;2023-06-22T03:19:49;70.57;;;55.13;;
51618;SDS011;38518;53.164;5.430;2023-06-22T03:22:15;67.47;;;55.45;;
51618;SDS011;38518;53.164;5.430;2023-06-22T03:24:41;70.47;;;56.70;;
51618;SDS011;38518;53.164;5.430;2023-06-22T03:27:06;82.65;;;60.40;;
51618;SDS011;38518;53.164;5.430;2023-06-22T03:29:32;78.68;;;60.72;;
51618;SDS011;38518;53.164;5.430;2023-06-22T03:31:59;124.72;;;71.82;;
51618;SDS011;38518;53.164;5.430;2023-06-22T03:34:24;87.95;;;60.55;;
51618;SDS011;38518;53.164;5.430;2023-06-22T03:36:50;78.22;;;55.78;;
51618;SDS011;38518;53.164;5.430;2023-06-22T03:39:16;66.90;;;50.50;;
51618;SDS011;38518;53.164;5.430;2023-06-22T03:41:41;127.93;;;59.42;;
51618;SDS011;38518;53.164;5.430;2023-06-22T03:44:07;70.90;;;52.53;;
51618;SDS011;38518;53.164;5.430;2023-06-22T03:46:37;77.35;;;56.95;;
51618;SDS011;38518;53.164;5.430;2023-06-22T03:49:03;72.85;;;55.13;;
51618;SDS011;38518;53.164;5.430;2023-06-22T03:51:30;133.15;;;57.97;;
51618;SDS011;38518;53.164;5.430;2023-06-22T03:53:56;205.95;;;70.68;;
51618;SDS011;38518;53.164;5.430;2023-06-22T03:56:22;101.72;;;52.85;;
51618;SDS011;38518;53.164;5.430;2023-06-22T03:58:48;171.57;;;55.00;;
51618;SDS011;38518;53.164;5.430;2023-06-22T04:01:14;175.90;;;62.55;;
51618;SDS011;38518;53.164;5.430;2023-06-22T04:03:42;154.10;;;57.70;;
51618;SDS011;38518;53.164;5.430;2023-06-22T04:06:08;131.32;;;54.53;;
51618;SDS011;38518;53.164;5.430;2023-06-22T04:08:33;287.02;;;77.97;;
51618;SDS011;38518;53.164;5.430;2023-06-22T04:10:59;103.32;;;54.00;;
51618;SDS011;38518;53.164;5.430;2023-06-22T04:13:25;61.35;;;51.72;;
51618;SDS011;38518;53.164;5.430;2023-06-22T04:15:51;83.25;;;56.70;;
51618;SDS011;38518;53.164;5.430;2023-06-22T04:18:16;55.45;;;46.60;;
51618;SDS011;38518;53.164;5.430;2023-06-22T04:20:42;71.40;;;54.40;;
51618;SDS011;38518;53.164;5.430;2023-06-22T04:23:10;60.55;;;50.05;;
51618;SDS011;38518;53.164;5.430;2023-06-22T04:25:35;61.78;;;49.33;;
51618;SDS011;38518;53.164;5.430;2023-06-22T04:28:01;62.85;;;50.38;;
51618;SDS011;38518;53.164;5.430;2023-06-22T04:30:28;63.55;;;50.10;;
51618;SDS011;38518;53.164;5.430;2023-06-22T04:32:56;57.10;;;47.00;;
51618;SDS011;38518;53.164;5.430;2023-06-22T04:35:25;64.55;;;48.03;;
51618;SDS011;38518;53.164;5.430;2023-06-22T04:37:55;68.30;;;48.92;;
51618;SDS011;38518;53.164;5.430;2023-06-22T04:40:23;64.75;;;46.88;;
51618;SDS011;38518;53.164;5.430;2023-06-22T04:42:49;47.75;;;39.80;;
51618;SDS011;38518;53.164;5.430;2023-06-22T04:45:18;51.75;;;41.85;;
51618;SDS011;38518;53.164;5.430;2023-06-22T04:47:45;54.42;;;43.13;;
51618;SDS011;38518;53.164;5.430;2023-06-22T04:50:11;51.03;;;41.65;;
51618;SDS011;38518;53.164;5.430;2023-06-22T04:52:37;52.80;;;40.83;;
51618;SDS011;38518;53.164;5.430;2023-06-22T04:55:03;55.60;;;44.33;;
51618;SDS011;38518;53.164;5.430;2023-06-22T04:57:29;56.67;;;43.50;;
51618;SDS011;38518;53.164;5.430;2023-06-22T04:59:59;55.80;;;42.72;;
51618;SDS011;38518;53.164;5.430;2023-06-22T05:02:37;64.10;;;47.42;;
51618;SDS011;38518;53.164;5.430;2023-06-22T05:05:06;51.95;;;42.95;;
51618;SDS011;38518;53.164;5.430;2023-06-22T05:07:35;58.30;;;45.20;;
51618;SDS011;38518;53.164;5.430;2023-06-22T05:10:02;57.70;;;43.58;;
51618;SDS011;38518;53.164;5.430;2023-06-22T05:12:29;54.70;;;43.30;;
51618;SDS011;38518;53.164;5.430;2023-06-22T05:14:55;53.22;;;41.50;;
51618;SDS011;38518;53.164;5.430;2023-06-22T05:17:21;54.08;;;40.58;;
51618;SDS011;38518;53.164;5.430;2023-06-22T05:19:47;52.45;;;41.42;;
51618;SDS011;38518;53.164;5.430;2023-06-22T05:22:16;44.88;;;38.47;;
51618;SDS011;38518;53.164;5.430;2023-06-22T05:24:42;43.58;;;36.38;;
51618;SDS011;38518;53.164;5.430;2023-06-22T05:27:08;41.50;;;34.45;;
51618;SDS011;38518;53.164;5.430;2023-06-22T05:29:35;44.67;;;37.10;;
51618;SDS011;38518;53.164;5.430;2023-06-22T05:32:02;42.83;;;35.72;;
51618;SDS011;38518;53.164;5.430;2023-06-22T05:34:28;44.33;;;35.45;;
51618;SDS011;38518;53.164;5.430;2023-06-22T05:36:56;43.45;;;36.67;;
51618;SDS011;38518;53.164;5.430;2023-06-22T05:39:24;49.47;;;38.63;;
51618;SDS011;38518;53.164;5.430;2023-06-22T05:41:50;47.67;;;36.63;;
51618;SDS011;38518;53.164;5.430;2023-06-22T05:44:15;42.30;;;35.97;;
51618;SDS011;38518;53.164;5.430;2023-06-22T05:46:42;46.35;;;36.88;;
51618;SDS011;38518;53.164;5.430;2023-06-22T05:49:13;45.03;;;35.63;;
51618;SDS011;38518;53.164;5.430;2023-06-22T05:51:39;39.47;;;34.85;;
51618;SDS011;38518;53.164;5.430;2023-06-22T05:54:05;42.45;;;36.13;;
51618;SDS011;38518;53.164;5.430;2023-06-22T05:56:33;36.75;;;32.75;;
51618;SDS011;38518;53.164;5.430;2023-06-22T05:58:58;35.65;;;31.65;;
51618;SDS011;38518;53.164;5.430;2023-06-22T06:01:24;39.45;;;34.10;;
51618;SDS011;38518;53.164;5.430;2023-06-22T06:03:51;34.95;;;31.25;;
51618;SDS011;38518;53.164;5.430;2023-06-22T06:06:17;35.75;;;31.60;;
51618;SDS011;38518;53.164;5.430;2023-06-22T06:08:47;40.40;;;32.20;;
51618;SDS011;38518;53.164;5.430;2023-06-22T06:11:14;38.53;;;32.95;;
51618;SDS011;38518;53.164;5.430;2023-06-22T06:13:39;40.50;;;32.88;;
51618;SDS011;38518;53.164;5.430;2023-06-22T06:16:05;35.13;;;29.98;;
51618;SDS011;38518;53.164;5.430;2023-06-22T06:18:31;34.47;;;30.73;;
51618;SDS011;38518;53.164;5.430;2023-06-22T06:20:57;32.55;;;29.05;;
51618;SDS011;38518;53.164;5.430;2023-06-22T06:23:22;31.33;;;27.65;;
51618;SDS011;38518;53.164;5.430;2023-06-22T06:25:48;28.52;;;24.67;;
51618;SDS011;38518;53.164;5.430;2023-06-22T06:28:14;29.08;;;25.38;;
51618;SDS011;38518;53.164;5.430;2023-06-22T06:30:39;28.17;;;24.95;;
51618;SDS011;38518;53.164;5.430;2023-06-22T06:33:06;26.95;;;24.15;;
51618;SDS011;38518;53.164;5.430;2023-06-22T06:35:33;26.95;;;24.23;;
51618;SDS011;38518;53.164;5.430;2023-06-22T06:37:59;25.15;;;22.63;;
51618;SDS011;38518;53.164;5.430;2023-06-22T06:40:25;25.45;;;22.90;;
51618;SDS011;38518;53.164;5.430;2023-06-22T06:42:51;24.10;;;21.85;;
51618;SDS011;38518;53.164;5.430;2023-06-22T06:45:17;25.40;;;22.73;;
51618;SDS011;38518;53.164;5.430;2023-06-22T06:47:45;23.63;;;21.23;;
51618;SDS011;38518;53.164;5.430;2023-06-22T06:50:11;24.92;;;21.65;;
51618;SDS011;38518;53.164;5.430;2023-06-22T06:52:40;22.80;;;20.50;;
51618;SDS011;38518;53.164;5.430;2023-06-22T06:55:06;20.80;;;18.60;;
51618;SDS011;38518;53.164;5.430;2023-06-22T06:57:36;20.17;;;18.25;;
51618;SDS011;38518;53.164;5.430;2023-06-22T07:00:03;22.23;;;19.92;;
51618;SDS011;38518;53.164;5.430;2023-06-22T07:02:34;22.58;;;20.33;;
51618;SDS011;38518;53.164;5.430;2023-06-22T07:05:00;20.95;;;18.85;;
51618;SDS011;38518;53.164;5.430;2023-06-22T07:07:28;21.10;;;18.85;;
51618;SDS011;38518;53.164;5.430;2023-06-22T07:09:53;21.95;;;19.70;;
51618;SDS011;38518;53.164;5.430;2023-06-22T07:12:19;20.63;;;18.45;;
51618;SDS011;38518;53.164;5.430;2023-06-22T07:14:46;21.80;;;18.75;;
51618;SDS011;38518;53.164;5.430;2023-06-22T07:17:12;20.58;;;18.42;;
51618;SDS011;38518;53.164;5.430;2023-06-22T07:19:38;21.58;;;19.38;;
51618;SDS011;38518;53.164;5.430;2023-06-22T07:22:05;19.73;;;17.75;;
51618;SDS011;38518;53.164;5.430;2023-06-22T07:24:31;17.98;;;16.27;;
51618;SDS011;38518;53.164;5.430;2023-06-22T07:26:57;20.05;;;17.90;;
51618;SDS011;38518;53.164;5.430;2023-06-22T07:29:24;16.55;;;14.90;;
51618;SDS011;38518;53.164;5.430;2023-06-22T07:31:52;16.35;;;14.75;;
51618;SDS011;38518;53.164;5.430;2023-06-22T07:34:18;16.02;;;14.55;;
51618;SDS011;38518;53.164;5.430;2023-06-22T07:36:44;16.23;;;14.63;;
51618;SDS011;38518;53.164;5.430;2023-06-22T07:39:11;16.55;;;14.90;;
51618;SDS011;38518;53.164;5.430;2023-06-22T07:41:38;17.38;;;14.55;;
51618;SDS011;38518;53.164;5.430;2023-06-22T07:44:06;16.20;;;14.68;;
51618;SDS011;38518;53.164;5.430;2023-06-22T07:46:32;15.35;;;13.65;;
51618;SDS011;38518;53.164;5.430;2023-06-22T07:49:01;15.98;;;14.27;;
51618;SDS011;38518;53.164;5.430;2023-06-22T07:51:28;15.95;;;14.45;;
51618;SDS011;38518;53.164;5.430;2023-06-22T07:53:54;14.63;;;13.13;;
51618;SDS011;38518;53.164;5.430;2023-06-22T07:56:20;13.93;;;12.35;;
51618;SDS011;38518;53.164;5.430;2023-06-22T07:58:46;13.13;;;11.85;;
51618;SDS011;38518;53.164;5.430;2023-06-22T08:01:16;12.23;;;11.05;;
51618;SDS011;38518;53.164;5.430;2023-06-22T08:03:44;11.10;;;9.27;;
51618;SDS011;38518;53.164;5.430;2023-06-22T08:06:10;12.88;;;10.98;;
51618;SDS011;38518;53.164;5.430;2023-06-22T08:08:36;12.80;;;11.48;;
51618;SDS011;38518;53.164;5.430;2023-06-22T08:11:03;11.90;;;10.70;;
51618;SDS011;38518;53.164;5.430;2023-06-22T08:13:31;11.05;;;9.70;;
51618;SDS011;38518;53.164;5.430;2023-06-22T08:15:57;11.45;;;9.82;;
51618;SDS011;38518;53.164;5.430;2023-06-22T08:18:23;10.45;;;9.32;;
51618;SDS011;38518;53.164;5.430;2023-06-22T08:20:49;10.75;;;9.70;;
51618;SDS011;38518;53.164;5.430;2023-06-22T08:23:15;10.55;;;9.45;;
51618;SDS011;38518;53.164;5.430;2023-06-22T08:25:42;11.23;;;10.10;;
51618;SDS011;38518;53.164;5.430;2023-06-22T08:28:08;11.23;;;10.07;;
51618;SDS011;38518;53.164;5.430;2023-06-22T08:30:34;10.65;;;9.50;;
51618;SDS011;38518;53.164;5.430;2023-06-22T08:33:00;12.18;;;10.10;;
51618;SDS011;38518;53.164;5.430;2023-06-22T08:35:27;10.98;;;9.98;;
51618;SDS011;38518;53.164;5.430;2023-06-22T08:37:54;10.70;;;9.70;;
51618;SDS011;38518;53.164;5.430;2023-06-22T08:40:22;10.88;;;9.77;;
51618;SDS011;38518;53.164;5.430;2023-06-22T08:42:49;9.80;;;8.80;;
51618;SDS011;38518;53.164;5.430;2023-06-22T08:45:15;9.07;;;8.18;;
51618;SDS011;38518;53.164;5.430;2023-06-22T08:47:41;8.63;;;7.82;;
51618;SDS011;38518;53.164;5.430;2023-06-22T08:50:08;9.40;;;8.48;;
51618;SDS011;38518;53.164;5.430;2023-06-22T08:52:34;9.57;;;8.57;;
51618;SDS011;38518;53.164;5.430;2023-06-22T08:55:00;10.23;;;8.15;;
51618;SDS011;38518;53.164;5.430;2023-06-22T08:57:27;8.98;;;8.15;;
51618;SDS011;38518;53.164;5.430;2023-06-22T08:59:54;10.50;;;8.82;;
51618;SDS011;38518;53.164;5.430;2023-06-22T09:02:27;9.15;;;8.25;;
51618;SDS011;38518;53.164;5.430;2023-06-22T09:04:56;10.02;;;9.00;;
51618;SDS011;38518;53.164;5.430;2023-06-22T09:07:23;9.82;;;8.82;;
51618;SDS011;38518;53.164;5.430;2023-06-22T09:09:50;10.45;;;9.43;;
51618;SDS011;38518;53.164;5.430;2023-06-22T09:12:16;10.18;;;9.13;;
51618;SDS011;38518;53.164;5.430;2023-06-22T09:14:45;10.32;;;8.85;;
51618;SDS011;38518;53.164;5.430;2023-06-22T09:17:12;10.05;;;9.00;;
51618;SDS011;38518;53.164;5.430;2023-06-22T09:19:38;10.50;;;8.18;;
51618;SDS011;38518;53.164;5.430;2023-06-22T09:22:04;9.90;;;8.98;;
51618;SDS011;38518;53.164;5.430;2023-06-22T09:24:34;9.88;;;8.88;;
51618;SDS011;38518;53.164;5.430;2023-06-22T09:27:00;10.40;;;9.43;;
51618;SDS011;38518;53.164;5.430;2023-06-22T09:29:26;11.32;;;10.02;;
51618;SDS011;38518;53.164;5.430;2023-06-22T09:31:52;10.88;;;9.77;;
51618;SDS011;38518;53.164;5.430;2023-06-22T09:34:21;9.70;;;8.70;;
51618;SDS011;38518;53.164;5.430;2023-06-22T09:36:47;11.30;;;10.20;;
51618;SDS011;38518;53.164;5.430;2023-06-22T09:39:22;11.57;;;9.38;;
51618;SDS011;38518;53.164;5.430;2023-06-22T09:41:48;8.55;;;7.60;;
51618;SDS011;38518;53.164;5.430;2023-06-22T09:44:14;7.45;;;6.75;;
51618;SDS011;38518;53.164;5.430;2023-06-22T09:46:40;8.52;;;7.72;;
51618;SDS011;38518;53.164;5.430;2023-06-22T09:49:06;8.93;;;8.02;;
51618;SDS011;38518;53.164;5.430;2023-06-22T09:51:32;9.20;;;7.82;;
51618;SDS011;38518;53.164;5.430;2023-06-22T09:53:58;8.80;;;7.95;;
51618;SDS011;38518;53.164;5.430;2023-06-22T09:56:25;6.45;;;5.78;;
51618;SDS011;38518;53.164;5.430;2023-06-22T09:58:53;6.20;;;5.53;;
51618;SDS011;38518;53.164;5.430;2023-06-22T10:01:19;7.85;;;5.35;;
51618;SDS011;38518;53.164;5.430;2023-06-22T10:03:46;6.28;;;5.68;;
51618;SDS011;38518;53.164;5.430;2023-06-22T10:06:12;7.35;;;6.53;;
51618;SDS011;38518;53.164;5.430;2023-06-22T10:08:38;8.27;;;6.30;;
51618;SDS011;38518;53.164;5.430;2023-06-22T10:11:05;6.25;;;5.47;;
51618;SDS011;38518;53.164;5.430;2023-06-22T10:13:31;6.35;;;5.38;;
51618;SDS011;38518;53.164;5.430;2023-06-22T10:15:57;8.30;;;6.80;;
51618;SDS011;38518;53.164;5.430;2023-06-22T10:18:24;8.18;;;7.15;;
51618;SDS011;38518;53.164;5.430;2023-06-22T10:20:50;7.15;;;5.97;;
51618;SDS011;38518;53.164;5.430;2023-06-22T10:23:16;7.22;;;6.10;;
51618;SDS011;38518;53.164;5.430;2023-06-22T10:25:43;8.18;;;7.38;;
51618;SDS011;38518;53.164;5.430;2023-06-22T10:28:09;8.30;;;7.53;;
51618;SDS011;38518;53.164;5.430;2023-06-22T10:30:35;8.07;;;7.28;;
51618;SDS011;38518;53.164;5.430;2023-06-22T10:33:01;7.32;;;6.63;;
51618;SDS011;38518;53.164;5.430;2023-06-22T10:35:27;7.65;;;6.95;;
51618;SDS011;38518;53.164;5.430;2023-06-22T10:37:54;6.85;;;6.15;;
51618;SDS011;38518;53.164;5.430;2023-06-22T10:40:21;7.80;;;6.43;;
51618;SDS011;38518;53.164;5.430;2023-06-22T10:42:47;7.60;;;6.35;;
51618;SDS011;38518;53.164;5.430;2023-06-22T10:45:15;7.85;;;6.50;;
51618;SDS011;38518;53.164;5.430;2023-06-22T10:47:41;7.10;;;5.88;;
51618;SDS011;38518;53.164;5.430;2023-06-22T10:50:07;6.82;;;6.13;;
51618;SDS011;38518;53.164;5.430;2023-06-22T10:52:33;6.30;;;5.68;;
51618;SDS011;38518;53.164;5.430;2023-06-22T10:54:59;7.55;;;6.22;;
51618;SDS011;38518;53.164;5.430;2023-06-22T10:57:25;6.78;;;6.07;;
51618;SDS011;38518;53.164;5.430;2023-06-22T10:59:52;6.60;;;6.00;;
51618;SDS011;38518;53.164;5.430;2023-06-22T11:02:18;5.72;;;5.18;;
51618;SDS011;38518;53.164;5.430;2023-06-22T11:04:44;5.22;;;4.72;;
51618;SDS011;38518;53.164;5.430;2023-06-22T11:07:11;6.00;;;5.25;;
51618;SDS011;38518;53.164;5.430;2023-06-22T11:09:37;5.85;;;5.32;;
51618;SDS011;38518;53.164;5.430;2023-06-22T11:12:04;4.60;;;4.20;;
51618;SDS011;38518;53.164;5.430;2023-06-22T11:14:31;6.80;;;5.78;;
51618;SDS011;38518;53.164;5.430;2023-06-22T11:16:58;4.97;;;4.53;;
51618;SDS011;38518;53.164;5.430;2023-06-22T11:19:24;4.90;;;4.10;;
51618;SDS011;38518;53.164;5.430;2023-06-22T11:21:50;5.07;;;3.35;;
51618;SDS011;38518;53.164;5.430;2023-06-22T11:24:17;5.57;;;3.72;;
51618;SDS011;38518;53.164;5.430;2023-06-22T11:26:45;4.55;;;3.58;;
51618;SDS011;38518;53.164;5.430;2023-06-22T11:29:11;3.78;;;3.45;;
51618;SDS011;38518;53.164;5.430;2023-06-22T11:31:37;3.65;;;3.30;;
51618;SDS011;38518;53.164;5.430;2023-06-22T11:34:04;4.00;;;3.60;;
51618;SDS011;38518;53.164;5.430;2023-06-22T11:36:30;6.32;;;3.80;;
51618;SDS011;38518;53.164;5.430;2023-06-22T11:38:58;5.50;;;3.47;;
51618;SDS011;38518;53.164;5.430;2023-06-22T11:41:24;4.32;;;3.47;;
51618;SDS011;38518;53.164;5.430;2023-06-22T11:43:50;6.25;;;4.43;;
51618;SDS011;38518;53.164;5.430;2023-06-22T11:46:16;6.32;;;4.03;;
51618;SDS011;38518;53.164;5.430;2023-06-22T11:48:44;5.07;;;3.58;;
51618;SDS011;38518;53.164;5.430;2023-06-22T11:51:10;5.85;;;3.97;;
51618;SDS011;38518;53.164;5.430;2023-06-22T11:53:37;7.05;;;5.07;;
51618;SDS011;38518;53.164;5.430;2023-06-22T11:56:03;8.65;;;5.68;;
51618;SDS011;38518;53.164;5.430;2023-06-22T11:58:29;6.28;;;5.68;;
51618;SDS011;38518;53.164;5.430;2023-06-22T12:00:55;5.00;;;4.38;;
51618;SDS011;38518;53.164;5.430;2023-06-22T12:03:21;5.82;;;4.57;;
51618;SDS011;38518;53.164;5.430;2023-06-22T12:05:47;6.38;;;5.75;;
51618;SDS011;38518;53.164;5.430;2023-06-22T12:08:13;6.90;;;5.40;;
51618;SDS011;38518;53.164;5.430;2023-06-22T12:10:39;6.90;;;5.15;;
51618;SDS011;38518;53.164;5.430;2023-06-22T12:13:06;7.05;;;6.00;;
51618;SDS011;38518;53.164;5.430;2023-06-22T12:15:32;4.90;;;4.40;;
51618;SDS011;38518;53.164;5.430;2023-06-22T12:17:58;5.38;;;3.90;;
51618;SDS011;38518;53.164;5.430;2023-06-22T12:20:24;4.30;;;3.90;;
51618;SDS011;38518;53.164;5.430;2023-06-22T12:22:50;4.78;;;4.30;;
51618;SDS011;38518;53.164;5.430;2023-06-22T12:25:17;4.30;;;3.90;;
51618;SDS011;38518;53.164;5.430;2023-06-22T12:27:43;6.22;;;3.38;;
51618;SDS011;38518;53.164;5.430;2023-06-22T12:30:09;4.05;;;3.40;;
51618;SDS011;38518;53.164;5.430;2023-06-22T12:32:36;4.47;;;3.50;;
51618;SDS011;38518;53.164;5.430;2023-06-22T12:35:02;4.57;;;4.05;;
51618;SDS011;38518;53.164;5.430;2023-06-22T12:37:28;3.92;;;3.55;;
51618;SDS011;38518;53.164;5.430;2023-06-22T12:39:56;3.92;;;2.70;;
51618;SDS011;38518;53.164;5.430;2023-06-22T12:42:22;6.72;;;2.67;;
51618;SDS011;38518;53.164;5.430;2023-06-22T12:44:48;3.85;;;3.20;;
51618;SDS011;38518;53.164;5.430;2023-06-22T12:47:14;2.70;;;2.40;;
51618;SDS011;38518;53.164;5.430;2023-06-22T12:49:41;5.10;;;3.22;;
51618;SDS011;38518;53.164;5.430;2023-06-22T12:52:10;5.10;;;3.22;;
51618;SDS011;38518;53.164;5.430;2023-06-22T12:54:38;4.10;;;2.90;;
51618;SDS011;38518;53.164;5.430;2023-06-22T12:57:05;3.58;;;2.95;;
51618;SDS011;38518;53.164;5.430;2023-06-22T12:59:31;5.13;;;3.13;;
51618;SDS011;38518;53.164;5.430;2023-06-22T13:01:57;6.13;;;2.95;;
51618;SDS011;38518;53.164;5.430;2023-06-22T13:04:23;3.05;;;2.72;;
51618;SDS011;38518;53.164;5.430;2023-06-22T13:06:49;3.20;;;2.53;;
51618;SDS011;38518;53.164;5.430;2023-06-22T13:09:17;3.83;;;2.33;;
51618;SDS011;38518;53.164;5.430;2023-06-22T13:11:43;3.42;;;2.45;;
51618;SDS011;38518;53.164;5.430;2023-06-22T13:14:09;2.70;;;2.40;;
51618;SDS011;38518;53.164;5.430;2023-06-22T13:16:35;3.08;;;2.13;;
51618;SDS011;38518;53.164;5.430;2023-06-22T13:19:01;3.35;;;2.75;;
51618;SDS011;38518;53.164;5.430;2023-06-22T13:21:27;2.88;;;2.05;;
51618;SDS011;38518;53.164;5.430;2023-06-22T13:23:54;2.80;;;2.40;;
51618;SDS011;38518;53.164;5.430;2023-06-22T13:26:27;2.97;;;2.20;;
51618;SDS011;38518;53.164;5.430;2023-06-22T13:28:58;2.17;;;1.90;;
51618;SDS011;38518;53.164;5.430;2023-06-22T13:31:25;3.83;;;2.65;;
51618;SDS011;38518;53.164;5.430;2023-06-22T13:33:51;3.53;;;2.20;;
51618;SDS011;38518;53.164;5.430;2023-06-22T13:36:17;2.97;;;2.17;;
51618;SDS011;38518;53.164;5.430;2023-06-22T13:38:44;3.28;;;2.17;;
51618;SDS011;38518;53.164;5.430;2023-06-22T13:41:10;2.25;;;1.73;;
51618;SDS011;38518;53.164;5.430;2023-06-22T13:43:36;4.28;;;1.63;;
51618;SDS011;38518;53.164;5.430;2023-06-22T13:46:02;2.10;;;1.80;;
51618;SDS011;38518;53.164;5.430;2023-06-22T13:48:28;2.80;;;1.90;;
51618;SDS011;38518;53.164;5.430;2023-06-22T13:50:55;2.30;;;1.75;;
51618;SDS011;38518;53.164;5.430;2023-06-22T13:53:21;3.70;;;1.80;;
51618;SDS011;38518;53.164;5.430;2023-06-22T13:55:47;2.22;;;1.70;;
51618;SDS011;38518;53.164;5.430;2023-06-22T13:58:13;2.67;;;2.00;;
51618;SDS011;38518;53.164;5.430;2023-06-22T14:00:39;3.70;;;2.05;;
51618;SDS011;38518;53.164;5.430;2023-06-22T14:03:05;3.35;;;1.90;;
51618;SDS011;38518;53.164;5.430;2023-06-22T14:05:31;3.42;;;2.13;;
51618;SDS011;38518;53.164;5.430;2023-06-22T14:07:57;2.78;;;1.83;;
51618;SDS011;38518;53.164;5.430;2023-06-22T14:10:23;3.25;;;1.80;;
51618;SDS011;38518;53.164;5.430;2023-06-22T14:12:49;2.33;;;1.80;;
51618;SDS011;38518;53.164;5.430;2023-06-22T14:15:16;2.55;;;1.85;;
51618;SDS011;38518;53.164;5.430;2023-06-22T14:17:42;2.20;;;1.90;;
51618;SDS011;38518;53.164;5.430;2023-06-22T14:20:08;2.38;;;1.85;;
51618;SDS011;38518;53.164;5.430;2023-06-22T14:22:34;3.85;;;1.92;;
51618;SDS011;38518;53.164;5.430;2023-06-22T14:25:01;2.13;;;1.60;;
51618;SDS011;38518;53.164;5.430;2023-06-22T14:27:27;2.97;;;1.70;;
51618;SDS011;38518;53.164;5.430;2023-06-22T14:29:54;2.28;;;1.45;;
51618;SDS011;38518;53.164;5.430;2023-06-22T14:32:20;1.98;;;1.77;;
51618;SDS011;38518;53.164;5.430;2023-06-22T14:34:46;2.00;;;1.50;;